sensor_id;sensor_type;location;lat;lon;timestamp;pressure;altitude;pressure_sealevel;temperature;humidity
71970;BME280;59838;52.152;5.436;2023-05-03T00:01:17;103125.78;;;3.80;88.36
71970;BME280;59838;52.152;5.436;2023-05-03T00:03:43;103129.69;;;3.72;88.69
71970;BME280;59838;52.152;5.436;2023-05-03T00:06:14;103122.13;;;3.69;88.82
71970;BME280;59838;52.152;5.436;2023-05-03T00:08:41;103125.59;;;3.67;89.00
71970;BME280;59838;52.152;5.436;2023-05-03T00:11:09;103125.16;;;3.59;89.14
71970;BME280;59838;52.152;5.436;2023-05-03T00:13:36;103121.94;;;3.56;89.40
71970;BME280;59838;52.152;5.436;2023-05-03T00:16:02;103117.59;;;3.56;89.98
71970;BME280;59838;52.152;5.436;2023-05-03T00:18:29;103121.03;;;3.57;89.85
71970;BME280;59838;52.152;5.436;2023-05-03T00:20:57;103126.25;;;3.55;89.91
71970;BME280;59838;52.152;5.436;2023-05-03T00:23:25;103121.03;;;3.57;89.92
71970;BME280;59838;52.152;5.436;2023-05-03T00:25:56;103126.91;;;3.59;90.20
71970;BME280;59838;52.152;5.436;2023-05-03T00:28:23;103124.50;;;3.56;89.99
71970;BME280;59838;52.152;5.436;2023-05-03T00:30:49;103123.75;;;3.54;89.92
71970;BME280;59838;52.152;5.436;2023-05-03T00:33:16;103132.44;;;3.51;89.88
71970;BME280;59838;52.152;5.436;2023-05-03T00:35:43;103132.53;;;3.50;90.09
71970;BME280;59838;52.152;5.436;2023-05-03T00:38:10;103136.91;;;3.47;90.01
71970;BME280;59838;52.152;5.436;2023-05-03T00:40:39;103125.91;;;3.45;89.60
71970;BME280;59838;52.152;5.436;2023-05-03T00:43:06;103127.81;;;3.42;89.80
71970;BME280;59838;52.152;5.436;2023-05-03T00:45:33;103126.28;;;3.38;89.74
71970;BME280;59838;52.152;5.436;2023-05-03T00:48:00;103113.91;;;3.28;89.78
71970;BME280;59838;52.152;5.436;2023-05-03T00:50:27;103119.97;;;3.27;89.92
71970;BME280;59838;52.152;5.436;2023-05-03T00:52:54;103122.75;;;3.23;89.92
71970;BME280;59838;52.152;5.436;2023-05-03T00:55:21;103125.56;;;3.18;90.17
71970;BME280;59838;52.152;5.436;2023-05-03T00:57:48;103123.06;;;3.17;90.33
71970;BME280;59838;52.152;5.436;2023-05-03T01:00:15;103122.25;;;3.16;90.85
71970;BME280;59838;52.152;5.436;2023-05-03T01:02:43;103122.47;;;3.11;90.35
71970;BME280;59838;52.152;5.436;2023-05-03T01:05:09;103127.09;;;3.05;90.34
71970;BME280;59838;52.152;5.436;2023-05-03T01:07:47;103135.00;;;3.00;90.27
71970;BME280;59838;52.152;5.436;2023-05-03T01:12:49;103127.69;;;2.92;90.59
71970;BME280;59838;52.152;5.436;2023-05-03T01:15:35;103117.63;;;2.88;90.66
71970;BME280;59838;52.152;5.436;2023-05-03T01:18:14;103128.91;;;2.85;91.20
71970;BME280;59838;52.152;5.436;2023-05-03T01:20:44;103135.81;;;2.83;91.03
71970;BME280;59838;52.152;5.436;2023-05-03T01:23:28;103125.88;;;2.77;91.11
71970;BME280;59838;52.152;5.436;2023-05-03T01:25:58;103128.59;;;2.74;91.11
71970;BME280;59838;52.152;5.436;2023-05-03T01:28:24;103124.44;;;2.71;91.42
71970;BME280;59838;52.152;5.436;2023-05-03T01:30:51;103127.97;;;2.69;91.21
71970;BME280;59838;52.152;5.436;2023-05-03T01:33:25;103128.28;;;2.63;91.96
71970;BME280;59838;52.152;5.436;2023-05-03T01:36:03;103126.75;;;2.59;91.98
71970;BME280;59838;52.152;5.436;2023-05-03T01:38:35;103129.38;;;2.57;92.19
71970;BME280;59838;52.152;5.436;2023-05-03T01:41:06;103121.75;;;2.55;92.60
71970;BME280;59838;52.152;5.436;2023-05-03T01:43:34;103121.97;;;2.51;92.80
71970;BME280;59838;52.152;5.436;2023-05-03T01:46:02;103119.72;;;2.45;92.75
71970;BME280;59838;52.152;5.436;2023-05-03T01:48:28;103122.38;;;2.43;92.90
71970;BME280;59838;52.152;5.436;2023-05-03T01:50:55;103120.75;;;2.41;93.29
71970;BME280;59838;52.152;5.436;2023-05-03T01:53:21;103121.78;;;2.36;93.40
71970;BME280;59838;52.152;5.436;2023-05-03T01:55:48;103125.41;;;2.32;93.91
71970;BME280;59838;52.152;5.436;2023-05-03T01:58:14;103113.63;;;2.28;94.15
71970;BME280;59838;52.152;5.436;2023-05-03T02:00:41;103124.94;;;2.24;94.42
71970;BME280;59838;52.152;5.436;2023-05-03T02:03:07;103115.72;;;2.20;94.76
71970;BME280;59838;52.152;5.436;2023-05-03T02:05:34;103119.06;;;2.22;95.05
71970;BME280;59838;52.152;5.436;2023-05-03T02:08:00;103119.13;;;2.21;94.98
71970;BME280;59838;52.152;5.436;2023-05-03T02:10:27;103120.03;;;2.19;94.88
71970;BME280;59838;52.152;5.436;2023-05-03T02:12:53;103111.59;;;2.17;94.72
71970;BME280;59838;52.152;5.436;2023-05-03T02:15:20;103109.09;;;2.16;95.05
71970;BME280;59838;52.152;5.436;2023-05-03T02:17:46;103108.41;;;2.12;95.02
71970;BME280;59838;52.152;5.436;2023-05-03T02:20:15;103108.34;;;2.14;95.12
71970;BME280;59838;52.152;5.436;2023-05-03T02:22:41;103099.72;;;2.15;95.36
71970;BME280;59838;52.152;5.436;2023-05-03T02:25:08;103105.66;;;2.15;95.17
71970;BME280;59838;52.152;5.436;2023-05-03T02:27:34;103104.91;;;2.13;95.19
71970;BME280;59838;52.152;5.436;2023-05-03T02:30:01;103092.84;;;2.15;95.27
71970;BME280;59838;52.152;5.436;2023-05-03T02:32:28;103089.25;;;2.19;95.42
71970;BME280;59838;52.152;5.436;2023-05-03T02:34:54;103089.19;;;2.21;95.67
71970;BME280;59838;52.152;5.436;2023-05-03T02:37:21;103088.06;;;2.27;95.76
71970;BME280;59838;52.152;5.436;2023-05-03T02:39:47;103099.97;;;2.28;96.15
71970;BME280;59838;52.152;5.436;2023-05-03T02:42:13;103087.44;;;2.22;96.29
71970;BME280;59838;52.152;5.436;2023-05-03T02:44:40;103088.72;;;2.13;96.68
71970;BME280;59838;52.152;5.436;2023-05-03T02:47:06;103081.22;;;2.08;97.13
71970;BME280;59838;52.152;5.436;2023-05-03T02:49:34;103071.19;;;2.04;97.24
71970;BME280;59838;52.152;5.436;2023-05-03T02:52:00;103080.00;;;1.98;98.05
71970;BME280;59838;52.152;5.436;2023-05-03T02:54:27;103074.09;;;1.96;98.19
71970;BME280;59838;52.152;5.436;2023-05-03T02:56:53;103076.44;;;2.00;98.11
71970;BME280;59838;52.152;5.436;2023-05-03T02:59:20;103074.09;;;1.96;97.93
71970;BME280;59838;52.152;5.436;2023-05-03T03:01:48;103071.84;;;1.90;97.78
71970;BME280;59838;52.152;5.436;2023-05-03T03:04:14;103080.41;;;1.89;97.30
71970;BME280;59838;52.152;5.436;2023-05-03T03:06:41;103079.47;;;1.91;97.45
71970;BME280;59838;52.152;5.436;2023-05-03T03:09:07;103087.97;;;1.92;97.45
71970;BME280;59838;52.152;5.436;2023-05-03T03:11:34;103087.97;;;1.92;97.70
71970;BME280;59838;52.152;5.436;2023-05-03T03:14:00;103089.53;;;1.94;97.80
71970;BME280;59838;52.152;5.436;2023-05-03T03:16:26;103090.53;;;1.92;97.57
71970;BME280;59838;52.152;5.436;2023-05-03T03:18:53;103092.22;;;1.93;97.48
71970;BME280;59838;52.152;5.436;2023-05-03T03:21:19;103093.91;;;1.92;97.73
71970;BME280;59838;52.152;5.436;2023-05-03T03:23:46;103100.09;;;1.88;97.60
71970;BME280;59838;52.152;5.436;2023-05-03T03:26:13;103097.75;;;1.83;97.48
71970;BME280;59838;52.152;5.436;2023-05-03T03:28:39;103100.50;;;1.79;97.68
71970;BME280;59838;52.152;5.436;2023-05-03T03:31:06;103095.66;;;1.73;97.27
71970;BME280;59838;52.152;5.436;2023-05-03T03:33:32;103086.59;;;1.66;97.34
71970;BME280;59838;52.152;5.436;2023-05-03T03:35:59;103089.34;;;1.61;97.15
71970;BME280;59838;52.152;5.436;2023-05-03T03:38:25;103098.06;;;1.57;96.97
71970;BME280;59838;52.152;5.436;2023-05-03T03:40:52;103099.16;;;1.51;96.56
71970;BME280;59838;52.152;5.436;2023-05-03T03:43:19;103108.50;;;1.52;96.85
71970;BME280;59838;52.152;5.436;2023-05-03T03:45:45;103103.53;;;1.49;96.99
71970;BME280;59838;52.152;5.436;2023-05-03T03:48:12;103099.38;;;1.46;96.97
71970;BME280;59838;52.152;5.436;2023-05-03T03:50:38;103111.34;;;1.46;96.93
71970;BME280;59838;52.152;5.436;2023-05-03T03:53:05;103110.56;;;1.44;96.79
71970;BME280;59838;52.152;5.436;2023-05-03T03:55:31;103113.25;;;1.41;96.78
71970;BME280;59838;52.152;5.436;2023-05-03T03:57:58;103115.81;;;1.41;96.55
71970;BME280;59838;52.152;5.436;2023-05-03T04:00:24;103113.25;;;1.41;96.60
71970;BME280;59838;52.152;5.436;2023-05-03T04:02:51;103113.41;;;1.38;96.60
71970;BME280;59838;52.152;5.436;2023-05-03T04:05:18;103118.59;;;1.36;96.89
71970;BME280;59838;52.152;5.436;2023-05-03T04:07:44;103118.59;;;1.36;96.49
71970;BME280;59838;52.152;5.436;2023-05-03T04:10:11;103106.63;;;1.37;96.65
71970;BME280;59838;52.152;5.436;2023-05-03T04:12:37;103112.38;;;1.42;96.75
71970;BME280;59838;52.152;5.436;2023-05-03T04:15:05;103109.56;;;1.48;96.68
71970;BME280;59838;52.152;5.436;2023-05-03T04:17:31;103122.78;;;1.58;96.72
71970;BME280;59838;52.152;5.436;2023-05-03T04:20:01;103117.31;;;1.85;96.67
71970;BME280;59838;52.152;5.436;2023-05-03T04:22:30;103116.84;;;2.14;96.71
71970;BME280;59838;52.152;5.436;2023-05-03T04:24:57;103118.59;;;2.50;96.46
71970;BME280;59838;52.152;5.436;2023-05-03T04:27:26;103124.38;;;3.08;95.30
71970;BME280;59838;52.152;5.436;2023-05-03T04:29:53;103130.72;;;3.67;93.22
71970;BME280;59838;52.152;5.436;2023-05-03T04:32:19;103131.34;;;4.36;91.26
71970;BME280;59838;52.152;5.436;2023-05-03T04:34:48;103132.75;;;5.03;88.54
71970;BME280;59838;52.152;5.436;2023-05-03T04:37:20;103130.13;;;5.33;85.62
71970;BME280;59838;52.152;5.436;2023-05-03T04:39:47;103140.44;;;5.33;85.69
71970;BME280;59838;52.152;5.436;2023-05-03T04:42:13;103143.16;;;5.88;83.06
71970;BME280;59838;52.152;5.436;2023-05-03T04:44:41;103141.44;;;6.30;80.37
71970;BME280;59838;52.152;5.436;2023-05-03T04:47:07;103143.22;;;6.29;79.78
71970;BME280;59838;52.152;5.436;2023-05-03T04:49:34;103149.44;;;6.39;80.20
71970;BME280;59838;52.152;5.436;2023-05-03T04:52:00;103149.53;;;6.65;78.96
71970;BME280;59838;52.152;5.436;2023-05-03T04:54:27;103142.16;;;6.59;78.00
71970;BME280;59838;52.152;5.436;2023-05-03T04:56:54;103148.19;;;6.32;78.50
71970;BME280;59838;52.152;5.436;2023-05-03T04:59:20;103149.13;;;6.17;79.52
71970;BME280;59838;52.152;5.436;2023-05-03T05:01:47;103148.38;;;6.29;79.44
71970;BME280;59838;52.152;5.436;2023-05-03T05:04:14;103155.88;;;6.87;78.05
71970;BME280;59838;52.152;5.436;2023-05-03T05:06:40;103147.63;;;7.33;77.03
71970;BME280;59838;52.152;5.436;2023-05-03T05:09:20;103151.00;;;7.72;76.24
71970;BME280;59838;52.152;5.436;2023-05-03T05:11:47;103146.75;;;8.08;73.99
71970;BME280;59838;52.152;5.436;2023-05-03T05:14:13;103145.41;;;8.99;71.82
71970;BME280;59838;52.152;5.436;2023-05-03T05:16:40;103140.94;;;9.69;68.33
71970;BME280;59838;52.152;5.436;2023-05-03T05:19:07;103140.81;;;10.25;65.98
71970;BME280;59838;52.152;5.436;2023-05-03T05:21:33;103144.13;;;10.81;63.00
71970;BME280;59838;52.152;5.436;2023-05-03T05:24:00;103140.91;;;11.50;59.16
71970;BME280;59838;52.152;5.436;2023-05-03T05:26:27;103149.53;;;11.92;57.30
71970;BME280;59838;52.152;5.436;2023-05-03T05:28:53;103141.63;;;12.52;55.46
71970;BME280;59838;52.152;5.436;2023-05-03T05:31:20;103139.84;;;12.72;54.54
71970;BME280;59838;52.152;5.436;2023-05-03T05:33:47;103151.91;;;12.63;54.18
71970;BME280;59838;52.152;5.436;2023-05-03T05:36:13;103143.13;;;12.74;53.60
71970;BME280;59838;52.152;5.436;2023-05-03T05:38:40;103153.66;;;12.92;53.15
71970;BME280;59838;52.152;5.436;2023-05-03T05:41:07;103153.09;;;12.98;52.49
71970;BME280;59838;52.152;5.436;2023-05-03T05:43:33;103150.63;;;12.96;53.18
71970;BME280;59838;52.152;5.436;2023-05-03T05:45:59;103149.34;;;13.10;52.59
71970;BME280;59838;52.152;5.436;2023-05-03T05:48:26;103150.34;;;12.99;52.87
71970;BME280;59838;52.152;5.436;2023-05-03T05:50:52;103145.44;;;13.34;51.50
71970;BME280;59838;52.152;5.436;2023-05-03T05:53:19;103141.88;;;13.25;50.89
71970;BME280;59838;52.152;5.436;2023-05-03T05:55:45;103143.69;;;13.15;51.63
71970;BME280;59838;52.152;5.436;2023-05-03T05:58:12;103150.38;;;12.90;52.64
71970;BME280;59838;52.152;5.436;2023-05-03T06:00:39;103148.06;;;12.77;53.60
71970;BME280;59838;52.152;5.436;2023-05-03T06:03:06;103144.47;;;13.35;53.15
71970;BME280;59838;52.152;5.436;2023-05-03T06:05:32;103156.72;;;13.15;53.52
71970;BME280;59838;52.152;5.436;2023-05-03T06:07:59;103162.16;;;12.84;53.33
71970;BME280;59838;52.152;5.436;2023-05-03T06:10:25;103156.38;;;12.90;53.26
71970;BME280;59838;52.152;5.436;2023-05-03T06:12:52;103150.94;;;13.21;54.00
71970;BME280;59838;52.152;5.436;2023-05-03T06:15:18;103159.59;;;13.22;53.88
71970;BME280;59838;52.152;5.436;2023-05-03T06:17:45;103153.03;;;13.17;54.50
71970;BME280;59838;52.152;5.436;2023-05-03T06:20:11;103159.13;;;12.98;53.12
71970;BME280;59838;52.152;5.436;2023-05-03T06:22:38;103163.31;;;12.72;53.32
71970;BME280;59838;52.152;5.436;2023-05-03T06:25:04;103158.19;;;12.90;53.45
71970;BME280;59838;52.152;5.436;2023-05-03T06:27:32;103158.31;;;12.88;54.07
71970;BME280;59838;52.152;5.436;2023-05-03T06:29:59;103156.38;;;12.90;55.36
71970;BME280;59838;52.152;5.436;2023-05-03T06:32:27;103147.91;;;12.78;55.08
71970;BME280;59838;52.152;5.436;2023-05-03T06:34:53;103155.03;;;12.86;53.79
71970;BME280;59838;52.152;5.436;2023-05-03T06:37:20;103148.06;;;12.67;54.80
71970;BME280;59838;52.152;5.436;2023-05-03T06:39:46;103147.41;;;12.55;54.36
71970;BME280;59838;52.152;5.436;2023-05-03T06:42:12;103143.13;;;12.64;54.25
71970;BME280;59838;52.152;5.436;2023-05-03T06:44:39;103142.13;;;12.85;54.75
71970;BME280;59838;52.152;5.436;2023-05-03T06:47:06;103141.31;;;13.31;52.69
71970;BME280;59838;52.152;5.436;2023-05-03T06:49:33;103139.59;;;13.12;53.17
71970;BME280;59838;52.152;5.436;2023-05-03T06:52:00;103139.19;;;13.07;53.16
71970;BME280;59838;52.152;5.436;2023-05-03T06:54:26;103144.97;;;13.48;52.56
71970;BME280;59838;52.152;5.436;2023-05-03T06:56:52;103134.94;;;13.71;51.84
71970;BME280;59838;52.152;5.436;2023-05-03T06:59:19;103139.03;;;13.56;51.98
71970;BME280;59838;52.152;5.436;2023-05-03T07:01:45;103135.63;;;13.74;50.58
71970;BME280;59838;52.152;5.436;2023-05-03T07:04:12;103136.59;;;13.73;51.53
71970;BME280;59838;52.152;5.436;2023-05-03T07:06:39;103135.75;;;13.44;51.75
71970;BME280;59838;52.152;5.436;2023-05-03T07:09:21;103130.72;;;13.23;53.03
71970;BME280;59838;52.152;5.436;2023-05-03T07:12:08;103128.25;;;13.41;52.76
71970;BME280;59838;52.152;5.436;2023-05-03T07:14:34;103124.63;;;13.70;51.45
71970;BME280;59838;52.152;5.436;2023-05-03T07:17:01;103124.66;;;13.88;50.66
71970;BME280;59838;52.152;5.436;2023-05-03T07:19:28;103115.97;;;13.69;49.13
71970;BME280;59838;52.152;5.436;2023-05-03T07:21:55;103125.47;;;13.70;50.04
71970;BME280;59838;52.152;5.436;2023-05-03T07:24:21;103121.19;;;13.69;50.87
71970;BME280;59838;52.152;5.436;2023-05-03T07:26:50;103107.88;;;13.45;51.06
71970;BME280;59838;52.152;5.436;2023-05-03T07:29:16;103118.38;;;13.35;51.04
71970;BME280;59838;52.152;5.436;2023-05-03T07:31:43;103099.25;;;13.34;51.08
71970;BME280;59838;52.152;5.436;2023-05-03T07:34:10;103102.34;;;13.20;49.59
71970;BME280;59838;52.152;5.436;2023-05-03T07:36:37;103092.13;;;13.27;49.96
71970;BME280;59838;52.152;5.436;2023-05-03T07:39:04;103093.63;;;13.29;50.56
71970;BME280;59838;52.152;5.436;2023-05-03T07:41:30;103091.13;;;13.38;50.24
71970;BME280;59838;52.152;5.436;2023-05-03T07:43:57;103088.69;;;13.26;49.84
71970;BME280;59838;52.152;5.436;2023-05-03T07:46:23;103083.44;;;13.36;49.58
71970;BME280;59838;52.152;5.436;2023-05-03T07:48:50;103084.28;;;13.37;50.63
71970;BME280;59838;52.152;5.436;2023-05-03T07:51:16;103087.97;;;13.06;50.80
71970;BME280;59838;52.152;5.436;2023-05-03T07:53:43;103075.47;;;13.00;51.36
71970;BME280;59838;52.152;5.436;2023-05-03T07:56:09;103085.31;;;13.16;51.96
71970;BME280;59838;52.152;5.436;2023-05-03T07:58:36;103084.47;;;13.53;52.94
71970;BME280;59838;52.152;5.436;2023-05-03T08:01:06;103078.03;;;13.47;53.21
71970;BME280;59838;52.152;5.436;2023-05-03T08:03:32;103083.63;;;12.87;52.59
71970;BME280;59838;52.152;5.436;2023-05-03T08:05:59;103087.41;;;11.87;53.63
71970;BME280;59838;52.152;5.436;2023-05-03T08:08:26;103082.56;;;11.63;55.82
71970;BME280;59838;52.152;5.436;2023-05-03T08:10:53;103085.88;;;11.55;53.63
71970;BME280;59838;52.152;5.436;2023-05-03T08:13:19;103085.84;;;11.45;56.28
71970;BME280;59838;52.152;5.436;2023-05-03T08:15:48;103079.19;;;11.22;56.58
71970;BME280;59838;52.152;5.436;2023-05-03T08:18:15;103091.34;;;11.11;58.67
71970;BME280;59838;52.152;5.436;2023-05-03T08:20:41;103088.25;;;11.27;59.84
71970;BME280;59838;52.152;5.436;2023-05-03T08:23:09;103076.88;;;11.28;58.64
71970;BME280;59838;52.152;5.436;2023-05-03T08:25:36;103081.88;;;11.51;59.15
71970;BME280;59838;52.152;5.436;2023-05-03T08:28:03;103073.78;;;11.44;56.31
71970;BME280;59838;52.152;5.436;2023-05-03T08:30:30;103061.50;;;11.25;59.76
71970;BME280;59838;52.152;5.436;2023-05-03T08:32:57;103049.63;;;11.32;58.70
71970;BME280;59838;52.152;5.436;2023-05-03T08:35:23;103055.41;;;11.46;58.08
71970;BME280;59838;52.152;5.436;2023-05-03T08:37:50;103049.47;;;11.24;54.40
71970;BME280;59838;52.152;5.436;2023-05-03T08:40:20;103052.09;;;11.34;57.31
71970;BME280;59838;52.152;5.436;2023-05-03T08:42:47;103055.03;;;11.60;59.26
71970;BME280;59838;52.152;5.436;2023-05-03T08:45:15;103063.00;;;11.68;57.09
71970;BME280;59838;52.152;5.436;2023-05-03T08:47:43;103066.81;;;11.74;59.89
71970;BME280;59838;52.152;5.436;2023-05-03T08:50:12;103063.81;;;11.88;56.39
71970;BME280;59838;52.152;5.436;2023-05-03T08:52:40;103072.53;;;11.99;56.70
71970;BME280;59838;52.152;5.436;2023-05-03T08:55:08;103075.78;;;11.91;56.29
71970;BME280;59838;52.152;5.436;2023-05-03T08:57:35;103077.16;;;12.15;53.88
71970;BME280;59838;52.152;5.436;2023-05-03T09:00:03;103073.06;;;12.12;54.00
71970;BME280;59838;52.152;5.436;2023-05-03T09:02:36;103076.63;;;12.11;55.21
71970;BME280;59838;52.152;5.436;2023-05-03T09:08:05;103075.53;;;12.14;53.71
71970;BME280;59838;52.152;5.436;2023-05-03T09:10:36;103087.03;;;11.92;54.82
71970;BME280;59838;52.152;5.436;2023-05-03T09:13:03;103078.22;;;11.73;55.01
71970;BME280;59838;52.152;5.436;2023-05-03T09:15:29;103074.91;;;11.71;56.56
71970;BME280;59838;52.152;5.436;2023-05-03T09:18:10;103076.69;;;11.70;57.34
71970;BME280;59838;52.152;5.436;2023-05-03T09:20:38;103082.31;;;11.66;55.91
71970;BME280;59838;52.152;5.436;2023-05-03T09:23:06;103088.91;;;11.70;57.00
71970;BME280;59838;52.152;5.436;2023-05-03T09:25:43;103089.78;;;12.10;55.44
71970;BME280;59838;52.152;5.436;2023-05-03T09:28:15;103096.38;;;12.14;56.58
71970;BME280;59838;52.152;5.436;2023-05-03T09:30:43;103087.88;;;12.02;56.29
71970;BME280;59838;52.152;5.436;2023-05-03T09:33:10;103076.47;;;12.03;56.56
71970;BME280;59838;52.152;5.436;2023-05-03T09:35:37;103087.31;;;12.08;55.04
71970;BME280;59838;52.152;5.436;2023-05-03T09:38:04;103087.03;;;12.40;53.88
71970;BME280;59838;52.152;5.436;2023-05-03T09:40:31;103088.38;;;12.54;54.41
71970;BME280;59838;52.152;5.436;2023-05-03T09:43:09;103095.66;;;12.60;56.33
71970;BME280;59838;52.152;5.436;2023-05-03T09:45:37;103082.50;;;12.52;56.80
71970;BME280;59838;52.152;5.436;2023-05-03T09:48:05;103086.84;;;12.61;53.70
71970;BME280;59838;52.152;5.436;2023-05-03T09:50:35;103084.00;;;12.45;54.86
71970;BME280;59838;52.152;5.436;2023-05-03T09:53:04;103074.94;;;12.49;55.02
71970;BME280;59838;52.152;5.436;2023-05-03T09:55:39;103073.00;;;12.61;59.32
71970;BME280;59838;52.152;5.436;2023-05-03T09:58:06;103082.22;;;12.36;56.84
71970;BME280;59838;52.152;5.436;2023-05-03T10:00:37;103073.81;;;12.61;52.29
71970;BME280;59838;52.152;5.436;2023-05-03T10:03:11;103062.75;;;12.87;53.94
71970;BME280;59838;52.152;5.436;2023-05-03T10:05:48;103068.81;;;12.88;54.67
71970;BME280;59838;52.152;5.436;2023-05-03T10:08:29;103070.72;;;12.86;54.83
71970;BME280;59838;52.152;5.436;2023-05-03T10:10:58;103067.44;;;12.84;54.32
71970;BME280;59838;52.152;5.436;2023-05-03T10:13:25;103058.34;;;12.97;53.67
71970;BME280;59838;52.152;5.436;2023-05-03T10:16:05;103051.16;;;13.09;51.63
71970;BME280;59838;52.152;5.436;2023-05-03T10:18:37;103057.75;;;13.04;52.85
71970;BME280;59838;52.152;5.436;2023-05-03T10:21:12;103055.38;;;12.73;56.17
71970;BME280;59838;52.152;5.436;2023-05-03T10:24:09;103052.31;;;12.87;55.79
71970;BME280;59838;52.152;5.436;2023-05-03T10:26:45;103044.78;;;12.84;53.61
71970;BME280;59838;52.152;5.436;2023-05-03T10:32:28;103041.00;;;13.34;54.15
71970;BME280;59838;52.152;5.436;2023-05-03T10:34:59;103042.09;;;13.41;55.10
71970;BME280;59838;52.152;5.436;2023-05-03T10:37:29;103041.25;;;13.41;50.61
71970;BME280;59838;52.152;5.436;2023-05-03T10:40:04;103032.75;;;13.39;51.19
71970;BME280;59838;52.152;5.436;2023-05-03T10:42:31;103032.75;;;13.57;52.88
71970;BME280;59838;52.152;5.436;2023-05-03T10:44:59;103031.44;;;13.52;53.33
71970;BME280;59838;52.152;5.436;2023-05-03T10:47:27;103034.75;;;13.45;52.16
71970;BME280;59838;52.152;5.436;2023-05-03T10:55:13;103032.31;;;13.79;52.14
71970;BME280;59838;52.152;5.436;2023-05-03T10:57:42;103037.31;;;13.73;49.63
71970;BME280;59838;52.152;5.436;2023-05-03T11:00:15;103030.81;;;13.77;54.35
71970;BME280;59838;52.152;5.436;2023-05-03T11:05:46;103020.59;;;14.01;50.58
71970;BME280;59838;52.152;5.436;2023-05-03T11:08:15;103029.28;;;14.10;52.00
71970;BME280;59838;52.152;5.436;2023-05-03T11:10:47;103016.31;;;14.00;51.34
71970;BME280;59838;52.152;5.436;2023-05-03T11:13:14;103008.09;;;14.13;49.17
71970;BME280;59838;52.152;5.436;2023-05-03T11:15:41;103004.09;;;14.27;47.66
71970;BME280;59838;52.152;5.436;2023-05-03T11:18:09;103001.66;;;14.07;47.05
71970;BME280;59838;52.152;5.436;2023-05-03T11:20:39;103003.94;;;13.84;49.13
71970;BME280;59838;52.152;5.436;2023-05-03T11:23:06;103004.53;;;13.78;52.57
71970;BME280;59838;52.152;5.436;2023-05-03T11:25:33;102995.94;;;13.86;51.89
71970;BME280;59838;52.152;5.436;2023-05-03T11:28:00;102985.09;;;13.99;56.30
71970;BME280;59838;52.152;5.436;2023-05-03T11:30:28;102986.75;;;14.00;52.75
71970;BME280;59838;52.152;5.436;2023-05-03T11:32:55;102991.78;;;13.93;49.82
71970;BME280;59838;52.152;5.436;2023-05-03T11:35:21;102984.19;;;14.08;51.53
71970;BME280;59838;52.152;5.436;2023-05-03T11:37:51;102991.84;;;14.27;52.91
71970;BME280;59838;52.152;5.436;2023-05-03T11:40:18;102982.97;;;14.47;49.67
71970;BME280;59838;52.152;5.436;2023-05-03T11:42:55;102972.19;;;14.50;51.62
71970;BME280;59838;52.152;5.436;2023-05-03T11:45:25;102981.34;;;14.80;52.35
71970;BME280;59838;52.152;5.436;2023-05-03T11:47:52;102980.09;;;14.58;50.89
71970;BME280;59838;52.152;5.436;2023-05-03T11:50:26;102976.81;;;14.30;49.71
71970;BME280;59838;52.152;5.436;2023-05-03T11:52:53;102969.84;;;14.38;49.80
71970;BME280;59838;52.152;5.436;2023-05-03T11:55:20;102962.50;;;14.68;47.81
71970;BME280;59838;52.152;5.436;2023-05-03T11:57:46;102967.66;;;14.94;48.11
71970;BME280;59838;52.152;5.436;2023-05-03T12:00:15;102960.69;;;15.28;48.00
71970;BME280;59838;52.152;5.436;2023-05-03T12:02:47;102962.41;;;14.94;49.16
71970;BME280;59838;52.152;5.436;2023-05-03T12:05:14;102960.75;;;14.85;47.40
71970;BME280;59838;52.152;5.436;2023-05-03T12:07:41;102965.69;;;15.05;46.59
71970;BME280;59838;52.152;5.436;2023-05-03T12:10:16;102952.69;;;15.29;47.99
71970;BME280;59838;52.152;5.436;2023-05-03T12:12:55;102954.41;;;14.96;49.07
71970;BME280;59838;52.152;5.436;2023-05-03T12:15:35;102953.25;;;14.90;49.89
71970;BME280;59838;52.152;5.436;2023-05-03T12:18:05;102946.22;;;14.99;47.01
71970;BME280;59838;52.152;5.436;2023-05-03T12:20:36;102938.38;;;14.91;49.07
71970;BME280;59838;52.152;5.436;2023-05-03T12:23:07;102933.16;;;15.15;50.10
71970;BME280;59838;52.152;5.436;2023-05-03T12:25:36;102932.19;;;15.00;51.31
71970;BME280;59838;52.152;5.436;2023-05-03T12:28:05;102937.03;;;14.87;47.92
71970;BME280;59838;52.152;5.436;2023-05-03T12:30:46;102927.94;;;15.07;49.23
71970;BME280;59838;52.152;5.436;2023-05-03T12:33:12;102930.06;;;15.12;49.19
71970;BME280;59838;52.152;5.436;2023-05-03T12:35:41;102929.25;;;15.11;49.05
71970;BME280;59838;52.152;5.436;2023-05-03T12:38:13;102914.03;;;15.31;48.02
71970;BME280;59838;52.152;5.436;2023-05-03T12:40:42;102908.66;;;15.49;47.16
71970;BME280;59838;52.152;5.436;2023-05-03T12:43:10;102913.25;;;15.31;49.04
71970;BME280;59838;52.152;5.436;2023-05-03T12:45:37;102905.88;;;15.26;47.28
71970;BME280;59838;52.152;5.436;2023-05-03T12:48:07;102912.91;;;15.34;47.73
71970;BME280;59838;52.152;5.436;2023-05-03T12:50:34;102901.44;;;15.27;47.79
71970;BME280;59838;52.152;5.436;2023-05-03T12:53:04;102895.88;;;15.46;47.92
71970;BME280;59838;52.152;5.436;2023-05-03T12:55:37;102892.94;;;15.25;49.70
71970;BME280;59838;52.152;5.436;2023-05-03T12:58:09;102888.81;;;15.22;47.95
71970;BME280;59838;52.152;5.436;2023-05-03T13:00:39;102893.41;;;15.28;45.98
71970;BME280;59838;52.152;5.436;2023-05-03T13:03:25;102884.25;;;15.41;46.75
71970;BME280;59838;52.152;5.436;2023-05-03T13:06:00;102877.84;;;15.51;44.96
71970;BME280;59838;52.152;5.436;2023-05-03T13:08:37;102873.94;;;15.56;45.55
71970;BME280;59838;52.152;5.436;2023-05-03T13:11:04;102864.75;;;15.43;45.97
71970;BME280;59838;52.152;5.436;2023-05-03T13:13:31;102856.25;;;15.41;48.60
71970;BME280;59838;52.152;5.436;2023-05-03T13:15:58;102863.63;;;15.46;49.03
71970;BME280;59838;52.152;5.436;2023-05-03T13:18:25;102852.81;;;15.57;46.25